Flight Track Log - Related Links

Times and Time Zones

All times are in EDT time to prevent confusion due to time zone crossing. See the TAM3400 flight status page for this flight to view local times or setup timezone preferences in your user account.

Time Position Orientation Groundspeed Altitude Reporting Facility
EDT Latitude Longitude Course Direction KTS MPH feet Rate Location/Type
Sun 09:43:55 AM -15.8690 -47.9190 340° North 10 12  Level FlightAware ADS-B
Sun 09:47:07 AM -15.8690 -47.9180 90° East 26 30 220 Level FlightAware ADS-B
Sun 09:47:28 AM -15.8690 -47.9170 90° East 29 33 270 Level FlightAware ADS-B
Sun 09:47:58 AM -15.8690 -47.9140 90° East 29 33 277 Level FlightAware ADS-B
Sun 09:50:00 AM -15.6424 -47.9232 358° North  Level Estimated
Sun 09:50:31 AM -15.8780 -47.9200 358° North 15 17  Level FlightAware ADS-B
Sun 09:51:59 AM -15.8780 -47.9270 270° West 21 24 357 Level FlightAware ADS-B
Sun 09:52:38 AM -15.8780 -47.9310 270° West 15 17 414 Level FlightAware ADS-B
Sun 09:55:00 AM -15.6330 -47.9407 358° North  Level Estimated
Sun 09:55:38 AM -15.8780 -47.9320 358° North 11 13  Level FlightAware ADS-B
Sun 09:56:43 AM -15.8790 -47.9340 243° Southwest 687 Level FlightAware ADS-B
Sun 09:59:00 AM -15.6427 -47.9433 358° North  Level Estimated
Sun 10:00:00 AM -15.5392 -47.9473 358° North  Level Estimated
Sun 10:01:00 AM -15.4356 -47.9514 358° North  Level Estimated
Sun 10:01:10 AM -15.8780 -47.9010 358° North 169 194 3,800  Level FlightAware ADS-B
Sun 10:01:32 AM -15.8770 -47.8830 87° East 158 182 5,000 2,291 Climbing FlightAware ADS-B
Sun 10:02:05 AM -15.8900 -47.8630 124° Southeast 161 185 5,900 1,600 Climbing FlightAware ADS-B
Sun 10:02:32 AM -15.9070 -47.8490 142° Southeast 173 199 6,600 1,535 Climbing FlightAware ADS-B
Sun 10:02:48 AM -15.9140 -47.8380 123° Southeast 176 203 7,000 1,200 Climbing FlightAware ADS-B
Sun 10:03:12 AM -15.9070 -47.8190 69° East 194 223 7,400 878 Climbing FlightAware ADS-B
Sun 10:03:29 AM -15.8940 -47.8140 20° North 213 245 7,600 750 Climbing FlightAware ADS-B
Sun 10:03:44 AM -15.8770 -47.8110 10° North 233 268 7,800 1,116 Climbing FlightAware ADS-B
Sun 10:04:12 AM -15.8450 -47.8070 North 262 302 8,400 2,000 Climbing FlightAware ADS-B
Sun 10:04:41 AM -15.8110 -47.8030 North 259 298 9,700 2,818 Climbing FlightAware ADS-B
Sun 10:05:18 AM -15.7660 -47.7950 10° North 256 295 11,500 2,667 Climbing FlightAware ADS-B
Sun 10:06:02 AM -15.7140 -47.7850 10° North 256 295 13,300 1,793 Climbing FlightAware ADS-B
Sun 10:06:45 AM -15.6610 -47.7760 North 296 341 14,100 1,000 Climbing FlightAware ADS-B
Sun 10:07:26 AM -15.6000 -47.7650 10° North 337 388 14,700 977 Climbing FlightAware ADS-B
Sun 10:08:11 AM -15.5340 -47.7700 356° North 372 428 15,500 1,320 Climbing FlightAware ADS-B
Sun 10:08:16 AM -15.5210 -47.7780 329° Northwest 379 436 15,800 2,478 Climbing FlightAware ADS-B
Sun 10:08:57 AM -15.4660 -47.8280 319° Northwest 376 433 17,400 1,814 Climbing FlightAware ADS-B
Sun 10:09:42 AM -15.4060 -47.8820 319° Northwest 394 453 18,400 1,425 Climbing FlightAware ADS-B
Sun 10:10:17 AM -15.3570 -47.9260 319° Northwest 403 464 19,300 1,109 Climbing FlightAware ADS-B
Sun 10:11:41 AM -15.2530 -48.0190 319° Northwest 430 495 20,600 1,140 Climbing FlightAware ADS-B
Sun 10:12:18 AM -15.1650 -48.0650 333° Northwest 439 505 21,600 1,558 Climbing FlightAware ADS-B
Sun 10:12:58 AM -15.0810 -48.0700 357° North 442 509 22,600 1,407 Climbing FlightAware ADS-B
Sun 10:13:39 AM -14.9970 -48.0750 357° North 444 511 23,500 1,185 Climbing FlightAware ADS-B
Sun 10:14:19 AM -14.9140 -48.0800 357° North 451 519 24,200 604 Climbing FlightAware ADS-B
Sun 10:15:58 AM -14.7250 -48.0930 358° North 458 527 24,900 290 Climbing FlightAware ADS-B
Sun 10:16:00 AM -14.7596 -48.0847 358° North  Level Estimated
Sun 10:16:44 AM -14.6420 -48.0990 356° North 458 527 24,900  Level FlightAware ADS-B
Sun 10:17:21 AM -14.5750 -48.1040 356° North 458 527 24,900  Level FlightAware ADS-B
Sun 10:17:57 AM -14.5110 -48.1090 356° North 458 527 24,900  Level FlightAware ADS-B
Sun 10:18:57 AM -14.4030 -48.1160 356° North 458 527 24,900 663 Level FlightAware ADS-B
Sun 10:21:00 AM -14.2149 -48.1214 358° North  Level Estimated
Sun 10:22:00 AM -14.1232 -48.1241 358° North  Level Estimated
Sun 10:23:00 AM -14.0044 -48.1275 358° North  Level Estimated
Sun 10:24:00 AM -13.8856 -48.1309 358° North  Level Estimated
Sun 10:25:00 AM -13.7667 -48.1343 358° North  Level Estimated
Sun 10:26:00 AM -13.6479 -48.1377 358° North  Level Estimated
Sun 10:27:00 AM -13.5291 -48.1411 358° North  Level Estimated
Sun 10:28:00 AM -13.4103 -48.1445 358° North  Level Estimated
Sun 10:29:00 AM -13.2915 -48.1479 358° North  Level Estimated
Sun 10:30:00 AM -13.1726 -48.1512 358° North  Level Estimated
Sun 10:31:00 AM -13.0538 -48.1546 358° North  Level Estimated
Sun 10:32:00 AM -12.9350 -48.1580 358° North  Level Estimated
Sun 10:33:00 AM -12.8162 -48.1614 358° North  Level Estimated
Sun 10:34:00 AM -12.6974 -48.1647 358° North  Level Estimated
Sun 10:34:41 AM -12.2290 -48.2430 358° North 471 542 36,000  Level FlightAware ADS-B
Sun 10:35:27 AM -12.1320 -48.2490 357° North 471 542 36,000  Level FlightAware ADS-B
Sun 10:36:43 AM -12.0410 -48.2540 357° North 471 542 36,000  Level FlightAware ADS-B
Sun 10:37:29 AM -12.0410 -48.2540 357° North 470 541 36,000  Level FlightAware ADS-B
Sun 10:38:09 AM -11.7700 -48.2710 356° North 470 541 36,000  Level FlightAware ADS-B
Sun 10:38:42 AM -11.6980 -48.2750 357° North 469 540 36,000  Level FlightAware ADS-B
Sun 10:39:27 AM -11.6010 -48.2810 357° North 469 540 36,000  Level FlightAware ADS-B
Sun 10:40:05 AM -11.5240 -48.2850 357° North 471 542 36,000  Level FlightAware ADS-B
Sun 10:40:45 AM -11.4340 -48.2910 356° North 472 543 36,000  Level FlightAware ADS-B
Sun 10:41:32 AM -11.3290 -48.2970 357° North 473 544 36,000  Level FlightAware ADS-B
Sun 10:42:13 AM -11.2380 -48.3020 357° North 474 545 36,000  Level FlightAware ADS-B
Sun 10:42:58 AM -11.1420 -48.3080 356° North 474 545 36,000  Level FlightAware ADS-B
Sun 10:43:24 AM -11.0820 -48.3120 356° North 474 545 36,000  Level FlightAware ADS-B
Sun 10:44:05 AM -10.9900 -48.3170 357° North 473 544 36,000  Level FlightAware ADS-B
Sun 10:44:42 AM -10.9200 -48.3210 357° North 472 543 36,000  Level FlightAware ADS-B
Sun 10:45:45 AM -10.8080 -48.3280 356° North 473 544 36,000  Level FlightAware ADS-B
Sun 10:46:56 AM -10.6290 -48.3380 357° North 472 543 36,000  Level FlightAware ADS-B
Sun 10:47:58 AM -10.4920 -48.3470 356° North 469 540 36,000  Level FlightAware ADS-B
Sun 10:48:33 AM -10.4860 -48.3470 360° North 468 539 36,000  Level FlightAware ADS-B
Sun 10:49:59 AM -10.5380 -48.3440 177° South 466 536 36,000  Level FlightAware ADS-B
Sun 10:50:38 AM -10.4660 -48.3490 356° North 466 536 36,000  Level FlightAware ADS-B
Sun 10:51:25 AM -10.3800 -48.3550 356° North 466 536 36,000  Level FlightAware ADS-B
Sun 10:52:01 AM -10.3150 -48.3600 356° North 466 536 36,000  Level FlightAware ADS-B
Sun 10:52:42 AM -10.5380 -48.3440 176° South 466 536 36,000  Level FlightAware ADS-B
Sun 10:54:10 AM -10.4460 -48.3450 359° North 466 536 36,000  Level FlightAware ADS-B
Sun 10:54:47 AM -10.4900 -48.3450 180° South 465 535 36,000  Level FlightAware ADS-B
Sun 10:55:32 AM -9.4990 -48.3690 359° North 465 535 36,000  Level FlightAware ADS-B
Sun 10:56:14 AM -9.4100 -48.3710 359° North 466 536 36,000  Level FlightAware ADS-B
Sun 10:56:49 AM -9.3330 -48.3720 359° North 466 536 36,000  Level FlightAware ADS-B
Sun 10:57:36 AM -9.2280 -48.3730 359° North 466 536 36,000  Level FlightAware ADS-B
Sun 10:58:16 AM -9.1480 -48.3740 359° North 465 535 36,000  Level FlightAware ADS-B
Sun 10:58:41 AM -9.0990 -48.3750 359° North 465 535 36,000  Level FlightAware ADS-B
Sun 10:59:28 AM -8.9930 -48.3760 359° North 464 534 36,000  Level FlightAware ADS-B
Sun 10:59:51 AM -8.9390 -48.3770 359° North 464 534 36,000  Level FlightAware ADS-B
Sun 11:01:07 AM -8.7760 -48.3790 359° North 464 534 36,000  Level FlightAware ADS-B
Sun 11:02:00 AM -8.6650 -48.3810 359° North 464 534 36,000  Level FlightAware ADS-B
Sun 11:02:45 AM -8.5640 -48.3820 359° North 463 533 36,000  Level FlightAware ADS-B
Sun 11:03:23 AM -8.4950 -48.3830 359° North 463 533 36,000  Level FlightAware ADS-B
Sun 11:03:59 AM -8.4290 -48.3850 358° North 463 533 36,000  Level FlightAware ADS-B
Sun 11:04:35 AM -8.3630 -48.3860 359° North 463 533 36,000  Level FlightAware ADS-B
Sun 11:05:21 AM -8.2800 -48.3870 359° North 463 533 36,000  Level FlightAware ADS-B
Sun 11:06:07 AM -8.1430 -48.3880 360° North 461 531 36,000  Level FlightAware ADS-B
Sun 11:06:44 AM -8.0760 -48.3890 359° North 461 531 36,000  Level FlightAware ADS-B
Sun 11:07:10 AM -8.0290 -48.3900 359° North 461 531 36,000  Level FlightAware ADS-B
Sun 11:07:59 AM -7.9400 -48.3920 359° North 461 531 36,000  Level FlightAware ADS-B
Sun 11:08:35 AM -7.8750 -48.3930 359° North 461 531 36,000  Level FlightAware ADS-B
Sun 11:09:11 AM -7.8100 -48.3940 359° North 461 531 36,000  Level FlightAware ADS-B
Sun 11:09:48 AM -7.7420 -48.3950 359° North 461 531 36,000  Level FlightAware ADS-B
Sun 11:10:37 AM -7.6540 -48.3970 359° North 461 531 36,000  Level FlightAware ADS-B
Sun 11:11:24 AM -7.5680 -48.3980 359° North 461 531 36,000  Level FlightAware ADS-B
Sun 11:12:11 AM -7.4830 -48.4000 359° North 461 531 36,000  Level FlightAware ADS-B
Sun 11:12:48 AM -7.4160 -48.4010 359° North 461 531 36,000  Level FlightAware ADS-B
Sun 11:13:22 AM -7.3550 -48.4020 359° North 461 531 36,000  Level FlightAware ADS-B
Sun 11:14:22 AM -7.2460 -48.4040 359° North 461 531 36,000  Level FlightAware ADS-B
Sun 11:14:57 AM -7.1820 -48.4050 359° North 461 531 36,000 -661 Level FlightAware ADS-B
Sun 11:17:00 AM -6.9343 -48.4081 359° North  Level Estimated
Sun 11:18:00 AM -6.8135 -48.4096 359° North  Level Estimated
Sun 11:19:00 AM -6.6926 -48.4111 359° North  Level Estimated
Sun 11:20:00 AM -6.5718 -48.4126 359° North  Level Estimated
Sun 11:21:00 AM -6.4510 -48.4141 359° North  Level Estimated
Sun 11:22:00 AM -6.3301 -48.4155 359° North  Level Estimated
Sun 11:23:00 AM -6.2093 -48.4170 359° North  Level Estimated
Sun 11:24:00 AM -6.0885 -48.4185 359° North  Level Estimated
Sun 11:25:00 AM -5.9676 -48.4200 359° North  Level Estimated
Sun 11:26:00 AM -5.8468 -48.4215 359° North  Level Estimated
Sun 11:27:00 AM -5.7260 -48.4230 359° North  Level Estimated
Sun 11:28:00 AM -5.6052 -48.4245 359° North  Level Estimated
Sun 11:29:00 AM -5.4843 -48.4260 359° North  Level Estimated
Sun 11:30:00 AM -5.3635 -48.4275 359° North  Level Estimated
Sun 11:31:00 AM -5.2427 -48.4290 359° North  Level Estimated
Sun 11:32:00 AM -5.1218 -48.4304 359° North  Level Estimated
Sun 11:33:00 AM -5.0010 -48.4319 359° North  Level Estimated
Sun 11:34:00 AM -4.8802 -48.4334 359° North  Level Estimated
Sun 11:35:00 AM -4.7593 -48.4349 359° North  Level Estimated
Sun 11:36:00 AM -4.6385 -48.4364 359° North  Level Estimated
Sun 11:37:00 AM -4.5177 -48.4379 359° North  Level Estimated
Sun 11:38:00 AM -4.3969 -48.4394 359° North  Level Estimated
Sun 11:39:00 AM -4.2760 -48.4408 359° North  Level Estimated
Sun 11:40:00 AM -4.1552 -48.4423 359° North  Level Estimated
Sun 11:41:00 AM -4.0344 -48.4438 359° North  Level Estimated
Sun 11:42:00 AM -3.9135 -48.4453 359° North  Level Estimated
Sun 11:43:00 AM -3.7927 -48.4468 359° North  Level Estimated
Sun 11:44:00 AM -3.6719 -48.4482 359° North  Level Estimated
Sun 11:45:00 AM -3.5510 -48.4497 359° North  Level Estimated
Sun 11:46:00 AM -3.4302 -48.4512 359° North  Level Estimated
Sun 11:47:00 AM -3.3094 -48.4527 359° North  Level Estimated
Sun 11:48:00 AM -3.1886 -48.4542 359° North  Level Estimated
Sun 11:49:00 AM -3.0677 -48.4556 359° North  Level Estimated
Sun 11:50:00 AM -2.9469 -48.4571 359° North  Level Estimated
Sun 11:51:00 AM -2.8261 -48.4586 359° North  Level Estimated
Sun 11:52:00 AM -2.7052 -48.4601 359° North  Level Estimated
Sun 11:53:00 AM -2.5844 -48.4616 359° North  Level Estimated
Sun 11:54:00 AM -2.4636 -48.4630 359° North  Level Estimated
Sun 11:55:00 AM -2.3428 -48.4645 359° North  Level Estimated
Sun 11:56:00 AM -2.2219 -48.4660 359° North  Level Estimated
Sun 11:57:00 AM -2.1011 -48.4675 359° North  Level Estimated
Sun 11:58:00 AM -1.9803 -48.4689 359° North  Level Estimated
Sun 11:59:00 AM -1.8594 -48.4704 359° North  Level Estimated
Sun 12:00:00 PM -1.7386 -48.4719 359° North  Level Estimated
Sun 12:01:00 PM -1.6178 -48.4734 359° North  Level Estimated
Sun 12:01:43 PM -1.5910 -48.5650 359° North 259 298 4,700  Level FlightAware ADS-B
Sun 12:02:00 PM -1.4969 -48.4749 359° North  Level Estimated
Sun 12:02:08 PM -1.5630 -48.5770 337° Northwest 240 276 4,500  Level FlightAware ADS-B
Sun 12:02:22 PM -1.5520 -48.5820 336° Northwest 232 267 4,400 -1,050 Descending FlightAware ADS-B
Sun 12:02:48 PM -1.5250 -48.5950 334° Northwest 208 239 3,800 -1,286 Descending FlightAware ADS-B
Sun 12:03:04 PM -1.5110 -48.5980 348° North 201 231 3,500 -1,529 Descending FlightAware ADS-B
Sun 12:03:39 PM -1.4820 -48.5790 33° Northeast 179 206 2,500 -1,292 Descending FlightAware ADS-B
Sun 12:04:09 PM -1.4660 -48.5640 43° Northeast 155 178 2,100 -750 Descending FlightAware ADS-B
Sun 12:04:19 PM -1.4610 -48.5590 45° Northeast 155 178 2,000 -714 Descending FlightAware ADS-B
Sun 12:04:51 PM -1.4460 -48.5430 47° Northeast 150 173 1,600 -766 Descending FlightAware ADS-B
Sun 12:05:06 PM -1.4390 -48.5370 41° Northeast 149 171 1,400 -900 Descending FlightAware ADS-B
Sun 12:05:31 PM -1.4250 -48.5220 47° Northeast 147 169 1,000 -712 Descending FlightAware ADS-B
Sun 12:06:05 PM -1.4100 -48.5070 45° Northeast 149 171 700 -610 Descending FlightAware ADS-B
Sun 12:06:30 PM -1.4000 -48.4970 45° Northeast 149 171 400 -375 Descending FlightAware ADS-B
Sun 12:07:09 PM -1.3850 -48.4810 47° Northeast 149 171 300 -154 Descending FlightAware ADS-B
Sun 12:09:00 PM -1.3793 -48.4763 39° Northeast  Level Estimated
Sun 12:10:00 PM -1.3793 -48.4763 270° West  Level Estimated
Sun 12:11:00 PM -1.3793 -48.4763 270° West  Level Estimated
Sun 12:12:00 PM -1.3793 -48.4763 270° West  Level Estimated
Sun 12:13:00 PM -1.3793 -48.4763 270° West  Level Estimated
Sun 12:14:00 PM -1.3793 -48.4763 270° West  Level Estimated
Sun 12:15:00 PM -1.3793 -48.4763 270° West  Level Estimated
Sun 12:16:00 PM -1.3793 -48.4763 270° West  Level Estimated

Login

Don't have an account? Register now (free) for customized features, flight alerts, and more!